Time;durP1;ratioP1;P1;durP2;ratioP2;P2;SDS_P1;SDS_P2;PMS_P1;PMS_P2;Temp;Humidity;BMP_temperature;BMP_pressure;BME280_temperature;BME280_humidity;BME280_pressure;Samples;Min_cycle;Max_cycle;Signal;HPM_P1;HPM_P2
2022/09/22 00:02:02;;;;;;;22.00;15.30;;;;;;;8.71;100.00;98578.95;1757621;81;20960;-84
2022/09/22 00:04:28;;;;;;;27.22;14.75;;;;;;;8.70;100.00;98584.07;1757259;81;20939;-88
2022/09/22 00:06:56;;;;;;;21.12;14.53;;;;;;;8.69;100.00;98583.80;1757688;81;20889;-87
2022/09/22 00:09:22;;;;;;;20.17;14.63;;;;;;;8.70;100.00;98578.67;1757273;81;21008;-84
2022/09/22 00:11:50;;;;;;;25.30;13.53;;;;;;;8.71;100.00;98584.34;1757780;81;21488;-88
2022/09/22 00:14:23;;;;;;;21.97;14.28;;;;;;;8.64;100.00;98583.22;1757240;81;21107;-88
2022/09/22 00:16:56;;;;;;;21.48;13.20;;;;;;;8.64;100.00;98583.22;1757815;81;21043;-88
2022/09/22 00:19:29;;;;;;;22.35;14.13;;;;;;;8.62;100.00;98580.47;1757408;81;21063;-88
2022/09/22 00:21:55;;;;;;;24.27;13.18;;;;;;;8.58;100.00;98586.92;1757572;81;21288;-87
2022/09/22 00:24:22;;;;;;;22.40;14.40;;;;;;;8.52;100.00;98579.82;1757527;81;21048;-84
2022/09/22 00:26:48;;;;;;;21.55;14.20;;;;;;;8.51;100.00;98581.43;1774407;80;21145;-88
2022/09/22 00:29:16;;;;;;;24.95;16.90;;;;;;;8.45;100.00;98574.61;1757224;81;21580;-84
2022/09/22 00:31:42;;;;;;;24.87;16.42;;;;;;;8.48;100.00;98578.70;1757349;81;21020;-87
2022/09/22 00:34:22;;;;;;;27.40;16.42;;;;;;;8.47;100.00;98576.55;1757224;81;21036;-87
2022/09/22 00:36:48;;;;;;;22.98;16.65;;;;;;;8.50;100.00;98577.91;1757717;81;21420;-84
2022/09/22 00:39:15;;;;;;;24.43;15.72;;;;;;;8.48;100.00;98581.41;1757305;81;21119;-87
2022/09/22 00:41:45;;;;;;;28.30;16.75;;;;;;;8.41;100.00;98572.14;1749206;81;21130;-87
2022/09/22 00:44:39;;;;;;;23.18;16.15;;;;;;;8.45;100.00;98580.00;1741749;81;21005;-84
2022/09/22 00:47:28;;;;;;;22.90;16.77;;;;;;;8.44;100.00;98575.67;1741961;81;21041;-88
2022/09/22 00:50:11;;;;;;;20.35;11.88;;;;;;;8.42;100.00;98583.22;1741862;82;21062;-88
2022/09/22 00:52:54;;;;;;;17.65;12.33;;;;;;;8.43;100.00;98570.00;1742133;81;21160;-83
2022/09/22 00:55:43;;;;;;;19.32;14.53;;;;;;;8.41;100.00;98574.03;1741993;82;21294;-84
2022/09/22 00:58:14;;;;;;;22.93;13.38;;;;;;;8.41;100.00;98577.55;1741793;81;21466;-84
2022/09/22 01:00:40;;;;;;;16.05;11.88;;;;;;;8.44;100.00;98576.21;1742154;82;21029;-85
2022/09/22 01:03:10;;;;;;;18.32;13.38;;;;;;;8.37;100.00;98566.13;1742030;81;21588;-84
2022/09/22 01:05:36;;;;;;;20.90;14.47;;;;;;;8.38;100.00;98571.30;1715161;82;21212;-84
2022/09/22 01:08:02;;;;;;;21.42;14.15;;;;;;;8.41;100.00;98579.43;1741803;81;20880;-84
2022/09/22 01:10:28;;;;;;;21.85;14.07;;;;;;;8.43;100.00;98573.23;1742019;82;20986;-87
2022/09/22 01:13:17;;;;;;;20.68;13.65;;;;;;;8.44;100.00;98577.56;1741914;81;21472;-87
2022/09/22 01:16:00;;;;;;;28.98;12.85;;;;;;;8.46;100.00;98574.91;1742076;82;21308;-87
2022/09/22 01:19:04;;;;;;;23.22;16.70;;;;;;;8.47;100.00;98573.03;1741643;81;21064;-87
2022/09/22 01:21:53;;;;;;;26.23;18.12;;;;;;;8.40;100.00;98571.86;1741335;81;21439;-84
2022/09/22 01:24:59;;;;;;;24.35;15.45;;;;;;;8.40;100.00;98571.86;1757153;80;21011;-88
2022/09/22 01:27:55;;;;;;;20.50;13.03;;;;;;;8.41;100.00;98578.08;1756921;80;21008;-84
2022/09/22 01:30:29;;;;;;;23.25;13.88;;;;;;;8.38;100.00;98576.70;1757897;81;21075;-88
2022/09/22 01:33:27;;;;;;;24.60;18.65;;;;;;;8.33;100.00;98570.39;1757795;80;21067;-87
2022/09/22 01:36:04;;;;;;;26.12;19.35;;;;;;;8.37;100.00;98578.28;1757916;81;21042;-84
2022/09/22 01:38:45;;;;;;;26.05;16.30;;;;;;;8.37;100.00;98575.58;1757732;80;20977;-84
2022/09/22 01:41:39;;;;;;;22.67;14.07;;;;;;;8.39;100.00;98571.58;1749872;81;20975;-87
2022/09/22 01:44:08;;;;;;;20.75;14.35;;;;;;;8.36;100.00;98572.61;1733168;81;21032;-87
2022/09/22 01:46:38;;;;;;;20.80;14.13;;;;;;;8.34;100.00;98565.27;1733437;82;21299;-87
2022/09/22 01:49:08;;;;;;;25.37;16.97;;;;;;;8.38;100.00;98569.95;1728139;82;21068;-84
2022/09/22 01:51:44;;;;;;;22.40;17.30;;;;;;;8.32;100.00;98562.01;1733377;82;21055;-84
2022/09/22 01:54:33;;;;;;;21.10;14.30;;;;;;;8.34;100.00;98561.22;1733030;81;21009;-84
2022/09/22 01:57:13;;;;;;;32.30;16.87;;;;;;;8.42;100.00;98563.50;1733338;81;21464;-86
2022/09/22 01:59:39;;;;;;;24.55;13.05;;;;;;;8.42;100.00;98563.50;1726428;82;21957;-88
2022/09/22 02:02:34;;;;;;;21.23;14.15;;;;;;;8.47;100.00;98563.58;1733227;81;20993;-84
2022/09/22 02:05:04;;;;;;;18.32;13.93;;;;;;;8.50;100.00;98571.70;1732572;82;20981;-88
2022/09/22 02:07:34;;;;;;;20.12;13.22;;;;;;;8.51;100.00;98573.33;1733173;81;21008;-87
2022/09/22 02:10:03;;;;;;;21.25;14.98;;;;;;;8.53;100.00;98569.83;1733184;82;21060;-88
2022/09/22 02:12:29;;;;;;;26.12;16.85;;;;;;;8.57;100.00;98573.14;1702612;82;21330;-83
2022/09/22 02:14:55;;;;;;;23.12;15.85;;;;;;;8.56;100.00;98566.64;1733071;82;21021;-87
2022/09/22 02:17:21;;;;;;;23.02;17.20;;;;;;;8.59;100.00;98568.30;1733181;81;20878;-88
2022/09/22 02:19:47;;;;;;;23.50;15.95;;;;;;;8.64;100.00;98570.25;1733311;82;20953;-84
2022/09/22 02:22:13;;;;;;;28.07;16.17;;;;;;;8.67;100.00;98571.89;1737319;81;20984;-85
2022/09/22 02:24:42;;;;;;;26.45;15.23;;;;;;;8.71;100.00;98570.84;1757927;81;22016;-84
2022/09/22 02:27:25;;;;;;;22.48;15.75;;;;;;;8.74;100.00;98575.22;1773816;80;21433;-84
2022/09/22 02:29:59;;;;;;;23.05;15.90;;;;;;;8.76;100.00;98567.66;1773518;80;21017;-88
2022/09/22 02:32:25;;;;;;;24.27;15.10;;;;;;;8.82;100.00;98573.14;1773672;80;20992;-88
2022/09/22 02:34:51;;;;;;;24.00;15.35;;;;;;;8.82;100.00;98573.14;1773496;80;20846;-87
2022/09/22 02:37:49;;;;;;;23.35;15.00;;;;;;;8.85;100.00;98571.27;1770750;80;22023;-84
2022/09/22 02:40:32;;;;;;;21.57;13.60;;;;;;;8.88;100.00;98566.69;1773704;80;21063;-84
2022/09/22 02:43:14;;;;;;;22.35;15.28;;;;;;;8.90;100.00;98570.79;1727707;83;21131;-88
2022/09/22 02:46:07;;;;;;;31.85;19.23;;;;;;;8.83;100.00;98563.42;1727879;83;21515;-84
2022/09/22 02:48:46;;;;;;;29.20;18.87;;;;;;;8.81;100.00;98561.52;1728948;81;21599;-85
2022/09/22 02:51:13;;;;;;;28.25;19.70;;;;;;;8.71;100.00;98561.38;1726995;83;21008;-87
2022/09/22 02:53:40;;;;;;;30.48;20.75;;;;;;;8.74;100.00;98563.06;1727958;81;21011;-84
2022/09/22 02:56:05;;;;;;;31.55;22.37;;;;;;;8.77;100.00;98565.78;1727769;82;20975;-83
2022/09/22 02:58:31;;;;;;;30.50;21.35;;;;;;;8.80;100.00;98565.80;1727789;81;20908;-88
2022/09/22 03:00:57;;;;;;;40.88;22.98;;;;;;;8.81;100.00;98563.40;1727999;82;20893;-89
2022/09/22 03:03:23;;;;;;;30.32;20.23;;;;;;;8.80;100.00;98566.61;1727678;81;21082;-88
2022/09/22 03:05:49;;;;;;;31.48;20.72;;;;;;;8.82;100.00;98560.44;1727833;82;20857;-88
2022/09/22 03:08:15;;;;;;;30.55;21.33;;;;;;;8.82;100.00;98554.22;1727686;81;21593;-84
2022/09/22 03:10:41;;;;;;;32.85;19.90;;;;;;;8.84;100.00;98559.64;1727505;83;21004;-85
2022/09/22 03:13:07;;;;;;;30.88;20.17;;;;;;;8.86;100.00;98554.79;1675673;83;20920;-87
2022/09/22 03:15:33;;;;;;;31.60;19.90;;;;;;;8.86;100.00;98547.22;1727513;83;21843;-84
2022/09/22 03:17:59;;;;;;;44.70;29.15;;;;;;;8.86;100.00;98552.63;1727621;81;20896;-84
2022/09/22 03:20:25;;;;;;;36.53;24.25;;;;;;;8.87;100.00;98554.25;1727613;83;20928;-88
2022/09/22 03:22:51;;;;;;;36.33;23.12;;;;;;;8.87;100.00;98548.31;1738967;80;20854;-88
2022/09/22 03:25:17;;;;;;;28.60;20.43;;;;;;;8.88;100.00;98555.88;1754135;81;20893;-84
2022/09/22 03:27:43;;;;;;;31.02;18.12;;;;;;;8.86;100.00;98553.97;1754372;81;21138;-87
2022/09/22 03:30:10;;;;;;;32.08;18.52;;;;;;;8.84;100.00;98550.72;1754174;81;20924;-87
2022/09/22 03:32:36;;;;;;;31.27;20.10;;;;;;;8.80;100.00;98550.39;1754392;81;20997;-87
2022/09/22 03:35:02;;;;;;;27.37;19.05;;;;;;;8.79;100.00;98560.11;1754379;81;20973;-88
2022/09/22 03:37:28;;;;;;;22.55;16.07;;;;;;;8.77;100.00;98553.62;1754355;81;21063;-86
2022/09/22 03:39:54;;;;;;;22.07;14.33;;;;;;;8.77;100.00;98553.62;1754214;81;21332;-84
2022/09/22 03:42:20;;;;;;;20.27;13.80;;;;;;;8.76;100.00;98554.16;1757129;81;20951;-87
2022/09/22 03:44:46;;;;;;;20.77;15.32;;;;;;;8.76;100.00;98558.21;1757686;81;20978;-88
2022/09/22 03:47:12;;;;;;;20.55;14.25;;;;;;;8.75;100.00;98551.72;1757986;81;21523;-84
2022/09/22 03:49:38;;;;;;;27.30;15.93;;;;;;;8.74;100.00;98554.95;1758026;81;20892;-84
2022/09/22 03:52:03;;;;;;;23.65;14.25;;;;;;;8.73;100.00;98557.38;1757946;81;21788;-84
2022/09/22 03:54:30;;;;;;;21.12;14.83;;;;;;;8.71;100.00;98557.33;1757769;81;20967;-87
2022/09/22 03:56:57;;;;;;;23.83;15.63;;;;;;;8.70;100.00;98553.81;1728012;81;20979;-84
2022/09/22 03:59:23;;;;;;;23.57;14.73;;;;;;;8.71;100.00;98554.63;1757574;81;21393;-84
2022/09/22 04:01:49;;;;;;;24.10;16.60;;;;;;;8.72;100.00;98557.64;1757932;81;21358;-88
2022/09/22 04:04:16;;;;;;;29.55;17.48;;;;;;;8.72;100.00;98556.29;1757660;81;22014;-85
2022/09/22 04:06:42;;;;;;;33.05;20.95;;;;;;;8.71;100.00;98555.44;1757829;81;20971;-88
2022/09/22 04:09:08;;;;;;;28.32;18.52;;;;;;;8.66;100.00;98557.30;1757658;81;21526;-88
2022/09/22 04:11:35;;;;;;;25.17;16.50;;;;;;;8.63;100.00;98553.73;1726935;81;21019;-84
2022/09/22 04:14:02;;;;;;;28.15;17.40;;;;;;;8.63;100.00;98551.88;1757617;81;21094;-84
2022/09/22 04:16:29;;;;;;;27.90;16.97;;;;;;;8.63;100.00;98553.73;1757959;81;21055;-84
2022/09/22 04:18:55;;;;;;;30.68;18.27;;;;;;;8.62;100.00;98553.45;1757656;81;21034;-84
2022/09/22 04:21:21;;;;;;;28.73;19.80;;;;;;;8.64;100.00;98555.39;1758003;81;21011;-85
2022/09/22 04:23:47;;;;;;;32.88;21.77;;;;;;;8.64;100.00;98556.73;1754936;81;21531;-88
2022/09/22 04:26:13;;;;;;;31.60;21.82;;;;;;;8.61;100.00;98551.83;1754513;81;20940;-88
2022/09/22 04:28:38;;;;;;;28.02;19.35;;;;;;;8.61;100.00;98555.34;1754464;81;21822;-84
2022/09/22 04:31:05;;;;;;;30.40;19.12;;;;;;;8.60;100.00;98555.06;1754202;81;21512;-85
2022/09/22 04:33:30;;;;;;;31.95;21.30;;;;;;;8.57;100.00;98560.98;1754389;81;20897;-88
2022/09/22 04:35:57;;;;;;;35.95;20.90;;;;;;;8.58;100.00;98561.27;1754408;81;21422;-84
2022/09/22 04:38:23;;;;;;;34.75;19.98;;;;;;;8.58;100.00;98561.27;1754459;81;20877;-84
2022/09/22 04:40:51;;;;;;;30.05;19.05;;;;;;;8.57;100.00;98556.12;1754979;81;21311;-88
2022/09/22 04:43:17;;;;;;;29.87;19.92;;;;;;;8.58;100.00;98557.75;1704779;81;20998;-88
2022/09/22 04:45:44;;;;;;;31.65;21.48;;;;;;;8.62;100.00;98560.20;1757758;81;20955;-88
2022/09/22 04:48:10;;;;;;;33.88;24.12;;;;;;;8.65;100.00;98567.28;1757805;81;21283;-87
2022/09/22 04:50:36;;;;;;;29.40;19.45;;;;;;;8.67;100.00;98559.73;1757841;81;21047;-87
2022/09/22 04:53:02;;;;;;;30.77;22.90;;;;;;;8.65;100.00;98563.23;1757961;81;21251;-88
2022/09/22 04:55:28;;;;;;;30.23;22.35;;;;;;;8.61;100.00;98562.09;1757823;81;20922;-85
2022/09/22 04:57:55;;;;;;;22.07;16.87;;;;;;;8.60;100.00;98562.35;1757836;81;21029;-86
2022/09/22 05:00:23;;;;;;;31.17;17.73;;;;;;;8.61;100.00;98563.45;1758897;81;21003;-88
2022/09/22 05:02:49;;;;;;;29.40;17.17;;;;;;;8.62;100.00;98561.56;1758619;81;21066;-88
2022/09/22 05:05:15;;;;;;;30.75;17.95;;;;;;;8.64;100.00;98565.66;1747306;80;21007;-88
2022/09/22 05:07:45;;;;;;;37.53;21.07;;;;;;;8.68;100.00;98565.95;1745598;81;20944;-87
2022/09/22 05:10:16;;;;;;;36.25;22.80;;;;;;;8.71;100.00;98568.14;1745022;80;21035;-88
2022/09/22 05:12:43;;;;;;;40.63;27.70;;;;;;;8.74;100.00;98565.77;1751124;81;21017;-84
2022/09/22 05:15:12;;;;;;;36.73;24.10;;;;;;;8.78;100.00;98573.34;1745482;81;21451;-84
2022/09/22 05:17:46;;;;;;;40.48;25.08;;;;;;;8.78;100.00;98568.76;1733493;82;21167;-88
2022/09/22 05:20:12;;;;;;;39.73;24.18;;;;;;;8.81;100.00;98570.97;1733241;82;21020;-85
2022/09/22 05:22:38;;;;;;;37.88;24.27;;;;;;;8.87;100.00;98573.98;1739670;81;21642;-87
2022/09/22 05:25:08;;;;;;;44.58;26.87;;;;;;;8.90;100.00;98580.25;1726723;83;21056;-87
2022/09/22 05:27:33;;;;;;;42.53;26.87;;;;;;;8.93;100.00;98578.91;1726994;81;21089;-86
2022/09/22 05:30:00;;;;;;;45.28;27.93;;;;;;;8.97;100.00;98575.97;1726449;82;21087;-84
2022/09/22 05:32:25;;;;;;;43.55;26.30;;;;;;;8.97;100.00;98579.52;1738750;81;21666;-84
2022/09/22 05:34:51;;;;;;;43.28;25.55;;;;;;;9.01;100.00;98578.45;1738056;82;20987;-85
2022/09/22 05:37:17;;;;;;;40.83;25.43;;;;;;;9.04;100.00;98579.28;1738609;81;20936;-84
2022/09/22 05:39:43;;;;;;;39.25;25.68;;;;;;;9.09;100.00;98580.70;1752531;81;20891;-88
2022/09/22 05:42:09;;;;;;;37.40;23.95;;;;;;;9.14;100.00;98582.08;1736572;81;21270;-88
2022/09/22 05:44:35;;;;;;;38.50;24.63;;;;;;;9.19;100.00;98579.44;1739608;82;20902;-84
2022/09/22 05:47:01;;;;;;;47.67;28.73;;;;;;;9.16;100.00;98584.02;1739295;81;21638;-88
2022/09/22 05:49:27;;;;;;;43.13;26.57;;;;;;;9.11;100.00;98587.20;1738582;82;21019;-89
2022/09/22 05:51:56;;;;;;;59.55;36.30;;;;;;;9.07;100.00;98580.69;1747152;81;20995;-88
2022/09/22 05:54:21;;;;;;;49.03;31.40;;;;;;;9.03;100.00;98585.23;1760135;81;21100;-84
2022/09/22 05:56:47;;;;;;;48.73;28.73;;;;;;;8.97;100.00;98584.92;1758717;81;21520;-86
2022/09/22 05:59:13;;;;;;;50.00;29.00;;;;;;;9.00;100.00;98586.28;1755982;81;20871;-88
2022/09/22 06:01:39;;;;;;;41.88;25.12;;;;;;;9.00;100.00;98585.75;1731558;81;20893;-88
2022/09/22 06:04:05;;;;;;;43.38;25.95;;;;;;;9.07;100.00;98584.73;1761444;79;21659;-84
2022/09/22 06:06:31;;;;;;;40.35;24.07;;;;;;;9.11;100.00;98585.30;1745534;80;21632;-84
2022/09/22 06:08:57;;;;;;;42.23;24.47;;;;;;;9.15;100.00;98586.44;1743257;80;20897;-84
2022/09/22 06:11:23;;;;;;;42.67;24.40;;;;;;;9.14;100.00;98584.78;1753407;79;21579;-88
2022/09/22 06:13:52;;;;;;;37.65;20.27;;;;;;;9.22;100.00;98593.78;1751867;79;21031;-84
2022/09/22 06:16:18;;;;;;;41.23;22.60;;;;;;;9.06;100.00;98594.73;1751440;80;21153;-88
2022/09/22 06:18:49;;;;;;;39.67;21.23;;;;;;;9.05;100.00;98593.89;1723115;80;21075;-87
2022/09/22 06:21:19;;;;;;;36.30;20.77;;;;;;;9.00;100.00;98595.21;1755579;80;21062;-88
2022/09/22 06:23:43;;;;;;;38.20;21.68;;;;;;;9.01;100.00;98598.19;1752449;80;21051;-88
2022/09/22 06:26:09;;;;;;;35.38;20.23;;;;;;;8.99;100.00;98601.69;1745069;80;21525;-88
2022/09/22 06:28:35;;;;;;;34.75;19.73;;;;;;;9.01;100.00;98600.08;1749653;80;21016;-84
2022/09/22 06:31:01;;;;;;;39.95;21.65;;;;;;;9.03;100.00;98602.80;1749031;80;21523;-88
2022/09/22 06:33:28;;;;;;;29.85;18.52;;;;;;;9.09;100.00;98607.73;1752103;79;21111;-89
2022/09/22 06:35:53;;;;;;;34.30;20.37;;;;;;;9.13;100.00;98611.54;1761747;79;21556;-88
2022/09/22 06:38:20;;;;;;;30.15;17.85;;;;;;;9.03;100.00;98608.74;1753856;80;20866;-89
2022/09/22 06:40:46;;;;;;;34.27;18.42;;;;;;;9.15;100.00;98608.61;1751799;80;21067;-88
2022/09/22 06:43:23;;;;;;;39.85;20.97;;;;;;;9.31;100.00;98609.84;1758876;79;22003;-89
2022/09/22 06:45:50;;;;;;;34.20;20.50;;;;;;;9.51;100.00;98613.79;1745218;80;21424;-84
2022/09/22 06:48:16;;;;;;;34.48;19.87;;;;;;;9.60;100.00;98619.81;1755304;80;21027;-89
2022/09/22 06:50:51;;;;;;;31.17;18.85;;;;;;;9.71;100.00;98620.70;1755771;80;21111;-88
2022/09/22 06:53:20;;;;;;;31.20;18.17;;;;;;;9.61;100.00;98616.03;1762735;79;21098;-88
2022/09/22 06:55:46;;;;;;;32.23;20.23;;;;;;;9.80;100.00;98621.03;1757662;80;21154;-84
2022/09/22 06:58:13;;;;;;;25.40;16.62;;;;;;;9.82;100.00;98616.17;1732595;81;21447;-84
2022/09/22 07:00:41;;;;;;;29.95;19.05;;;;;;;10.25;100.00;98616.47;1734614;81;21189;-84
2022/09/22 07:03:20;;;;;;;30.82;17.50;;;;;;;10.45;100.00;98615.77;1724234;81;20980;-84
2022/09/22 07:06:02;;;;;;;27.98;16.00;;;;;;;10.21;100.00;98622.12;1723106;81;21025;-84
2022/09/22 07:08:30;;;;;;;30.68;18.23;;;;;;;10.40;100.00;98615.20;1717349;81;21142;-89
2022/09/22 07:11:06;;;;;;;22.60;13.83;;;;;;;10.59;100.00;98619.61;1723433;81;21114;-84
2022/09/22 07:13:38;;;;;;;20.85;13.48;;;;;;;10.80;100.00;98630.00;1728682;81;21468;-90
2022/09/22 07:16:07;;;;;;;20.40;12.90;;;;;;;11.31;100.00;98632.83;1725193;81;21055;-84
2022/09/22 07:18:36;;;;;;;22.25;14.38;;;;;;;11.85;96.79;98630.97;1723003;82;21090;-84
2022/09/22 07:21:07;;;;;;;20.02;13.35;;;;;;;11.86;98.52;98626.61;1722918;81;21626;-89
2022/09/22 07:23:34;;;;;;;18.65;13.50;;;;;;;11.95;95.04;98635.02;1729535;81;22099;-89
2022/09/22 07:26:03;;;;;;;23.05;14.78;;;;;;;11.85;94.34;98639.11;1727582;81;21055;-84
2022/09/22 07:28:30;;;;;;;;;;;;;;;11.65;93.64;98644.53;1723878;81;21424;-84
2022/09/22 07:31:07;;;;;;;26.23;13.40;;;;;;;11.34;92.71;98643.13;1721619;81;20169;-89
2022/09/22 07:33:34;;;;;;;18.55;12.03;;;;;;;10.92;94.10;98634.63;1720601;81;21789;-84
2022/09/22 07:36:08;;;;;;;20.17;11.65;;;;;;;10.88;96.28;98634.91;1724791;81;21780;-84
2022/09/22 07:38:36;;;;;;;20.85;14.15;;;;;;;10.68;95.40;98632.95;1723066;81;21031;-90
2022/09/22 07:41:07;;;;;;;19.05;13.60;;;;;;;11.64;95.68;98632.86;1725058;81;21092;-84
2022/09/22 07:43:34;;;;;;;19.25;11.97;;;;;;;12.89;87.55;98625.21;1726694;81;21015;-85
2022/09/22 07:45:59;;;;;;;15.90;11.33;;;;;;;13.80;81.47;98637.42;1723608;81;21969;-85
2022/09/22 07:48:45;;;;;;;19.95;11.65;;;;;;;14.57;81.67;98629.87;1723434;81;20860;-90
2022/09/22 07:51:15;;;;;;;17.40;10.30;;;;;;;15.66;82.90;98632.47;1720388;81;21114;-88
2022/09/22 07:53:41;;;;;;;15.93;11.22;;;;;;;15.20;83.83;98629.03;1725953;81;21035;-85
2022/09/22 07:56:11;;;;;;;17.42;11.48;;;;;;;14.37;77.04;98630.34;1719704;81;20998;-87
2022/09/22 07:58:48;;;;;;;17.82;10.65;;;;;;;14.04;80.31;98631.23;1729914;81;21394;-84
2022/09/22 08:01:14;;;;;;;17.23;11.88;;;;;;;13.33;82.85;98635.88;1726300;81;21043;-85
2022/09/22 08:03:40;;;;;;;17.70;11.88;;;;;;;13.00;83.47;98634.16;1723477;81;21075;-89
2022/09/22 08:06:11;;;;;;;32.38;19.75;;;;;;;12.64;84.12;98628.86;1734952;81;20940;-89
2022/09/22 08:08:42;;;;;;;44.58;26.52;;;;;;;13.20;84.53;98629.16;1721585;81;21413;-86
2022/09/22 08:11:13;;;;;;;57.33;30.88;;;;;;;14.85;85.35;98631.69;1713772;81;21553;-89
2022/09/22 08:13:45;;;;;;;22.60;14.58;;;;;;;14.28;82.67;98637.52;1722141;81;20988;-88
2022/09/22 08:16:11;;;;;;;15.88;11.28;;;;;;;13.55;77.94;98642.52;1719958;81;21019;-89
2022/09/22 08:18:38;;;;;;;14.40;10.10;;;;;;;12.97;79.60;98640.14;1722971;81;20955;-89
2022/09/22 08:21:06;;;;;;;13.28;9.13;;;;;;;12.98;79.18;98640.40;1722972;81;21081;-88
2022/09/22 08:23:31;;;;;;;12.78;8.90;;;;;;;14.56;75.56;98641.33;1733492;81;21154;-86
2022/09/22 08:26:05;;;;;;;17.70;10.58;;;;;;;16.28;71.32;98639.86;1734128;81;21678;-85
2022/09/22 08:28:31;;;;;;;30.97;17.75;;;;;;;17.05;74.99;98633.70;1724494;81;21174;-85
2022/09/22 08:30:58;;;;;;;22.25;12.93;;;;;;;17.40;72.78;98626.61;1720579;81;21039;-89
2022/09/22 08:33:27;;;;;;;24.05;13.35;;;;;;;17.13;74.23;98632.16;1732052;80;21113;-85
2022/09/22 08:35:56;;;;;;;13.10;8.73;;;;;;;16.51;69.62;98625.77;1754652;80;21042;-85
2022/09/22 08:38:22;;;;;;;9.43;7.53;;;;;;;17.90;70.34;98629.27;1750271;79;21673;-85
2022/09/22 08:41:17;;;;;;;10.45;8.38;;;;;;;17.59;60.78;98623.69;1756402;80;20962;-89
2022/09/22 08:43:55;;;;;;;11.10;8.15;;;;;;;18.40;58.35;98624.95;1743404;79;21065;-85
2022/09/22 08:46:28;;;;;;;10.85;7.90;;;;;;;16.61;61.97;98626.92;1755219;80;21083;-90
2022/09/22 08:51:51;;;;;;;11.08;7.62;;;;;;;17.07;64.26;98624.61;1758610;80;21036;-86
2022/09/22 08:54:22;;;;;;;12.20;8.33;;;;;;;16.38;67.25;98630.66;1761409;80;21057;-85
2022/09/22 08:57:36;;;;;;;10.10;7.12;;;;;;;15.71;68.17;98627.47;1749154;80;21051;-85
2022/09/22 09:00:11;;;;;;;11.20;6.53;;;;;;;15.34;68.36;98615.45;1752383;80;21531;-89
2022/09/22 09:02:53;;;;;;;11.63;6.85;;;;;;;14.52;68.55;98615.73;1755159;80;21492;-90
2022/09/22 09:05:56;;;;;;;11.85;9.25;;;;;;;14.22;70.68;98618.78;1753594;79;21178;-91
2022/09/22 09:08:59;;;;;;;10.28;7.78;;;;;;;13.85;72.46;98615.34;1727559;80;21019;-85
2022/09/22 09:11:53;;;;;;;10.28;6.75;;;;;;;13.56;73.35;98618.83;1732691;81;21432;-85
2022/09/22 09:14:40;;;;;;;8.60;5.70;;;;;;;13.64;74.18;98614.14;1721156;81;21009;-89
2022/09/22 09:17:26;;;;;;;7.90;5.15;;;;;;;13.40;73.36;98613.23;1712114;81;21224;-90
2022/09/22 09:19:57;;;;;;;7.28;5.70;;;;;;;13.07;73.90;98618.31;1722294;81;21052;-85
2022/09/22 09:22:37;;;;;;;10.93;6.10;;;;;;;12.76;74.49;98608.16;1725194;81;21417;-85
2022/09/22 09:25:07;;;;;;;9.85;5.83;;;;;;;12.74;76.63;98613.08;1700242;82;21505;-84
2022/09/22 09:27:40;;;;;;;7.50;5.05;;;;;;;12.51;76.68;98613.16;1739557;81;21799;-89
2022/09/22 09:30:16;;;;;;;9.53;6.25;;;;;;;12.59;77.07;98607.70;1726609;81;21725;-84
2022/09/22 09:32:55;;;;;;;10.80;6.78;;;;;;;12.76;77.80;98610.88;1730850;81;21045;-89
2022/09/22 09:35:36;;;;;;;10.25;7.30;;;;;;;12.17;81.23;98618.42;1736503;81;21484;-88
2022/09/22 09:38:02;;;;;;;12.03;6.53;;;;;;;11.97;83.32;98624.72;1729535;81;21047;-88
2022/09/22 09:40:28;;;;;;;6.17;4.72;;;;;;;12.16;81.73;98617.35;1698702;81;21114;-88
2022/09/22 09:43:00;;;;;;;7.85;4.72;;;;;;;11.94;82.42;98621.17;1726286;80;21180;-89
2022/09/22 09:45:31;;;;;;;8.88;4.30;;;;;;;11.98;82.25;98628.25;1729075;81;21874;-85
2022/09/22 09:48:09;;;;;;;10.65;5.30;;;;;;;11.40;85.11;98631.75;1743841;80;21532;-89
2022/09/22 09:50:36;;;;;;;8.98;4.92;;;;;;;11.48;83.89;98628.50;1714107;81;21494;-89
2022/09/22 09:53:02;;;;;;;9.18;4.80;;;;;;;11.40;83.35;98631.20;1724321;81;21119;-89
2022/09/22 09:55:28;;;;;;;6.47;4.55;;;;;;;11.18;84.64;98629.27;1723046;81;21455;-89
2022/09/22 09:58:04;;;;;;;6.87;4.90;;;;;;;11.29;84.67;98622.80;1730243;80;20930;-89
2022/09/22 10:00:30;;;;;;;8.93;6.47;;;;;;;11.30;85.33;98623.06;1730923;81;21030;-84
2022/09/22 10:03:14;;;;;;;9.45;5.42;;;;;;;11.61;84.47;98629.85;1731731;81;21521;-90
2022/09/22 10:05:40;;;;;;;7.58;4.87;;;;;;;11.86;84.32;98619.02;1730283;81;21629;-84
2022/09/22 10:08:19;;;;;;;6.80;4.35;;;;;;;12.13;82.27;98618.69;1722116;81;21089;-84
2022/09/22 10:10:46;;;;;;;6.65;4.75;;;;;;;12.17;78.00;98619.78;1756528;80;21096;-84
2022/09/22 10:13:22;;;;;;;7.25;4.75;;;;;;;12.24;77.68;98618.95;1749410;79;21464;-89
2022/09/22 10:16:19;;;;;;;7.92;4.58;;;;;;;12.20;80.83;98626.02;1757148;80;21006;-84
2022/09/22 10:18:46;;;;;;;6.60;4.60;;;;;;;12.19;80.30;98618.95;1746249;80;21067;-84
2022/09/22 10:21:20;;;;;;;5.95;4.67;;;;;;;12.30;81.47;98621.91;1761376;80;21021;-90
2022/09/22 10:23:50;;;;;;;8.25;4.50;;;;;;;12.21;80.62;98617.31;1763511;80;21020;-84
2022/09/22 10:26:22;;;;;;;5.97;4.28;;;;;;;11.98;79.24;98629.06;1753799;80;21469;-84
2022/09/22 10:29:13;;;;;;;7.17;4.83;;;;;;;11.76;80.26;98621.16;1763839;80;21434;-89
2022/09/22 10:31:41;;;;;;;7.75;3.80;;;;;;;11.82;80.43;98623.38;1756366;79;21103;-89
2022/09/22 10:34:36;;;;;;;5.45;3.50;;;;;;;11.82;77.82;98613.33;1717019;81;21242;-88
2022/09/22 10:37:09;;;;;;;4.35;2.65;;;;;;;11.99;78.26;98621.18;1758395;80;21151;-89
2022/09/22 10:39:58;;;;;;;3.95;3.15;;;;;;;11.83;75.71;98617.66;1710511;81;21003;-85
2022/09/22 10:42:37;;;;;;;5.67;2.87;;;;;;;11.98;78.05;98608.69;1753727;80;20965;-90
2022/09/22 10:45:07;;;;;;;4.85;3.27;;;;;;;12.06;76.94;98605.97;1747382;80;21099;-84
2022/09/22 10:47:53;;;;;;;5.30;3.60;;;;;;;12.17;78.69;98602.67;1755232;79;22094;-84
2022/09/22 10:50:28;;;;;;;12.28;6.62;;;;;;;12.26;79.07;98602.38;1752643;80;21069;-88
2022/09/22 10:52:58;;;;;;;7.80;4.85;;;;;;;12.26;77.14;98592.31;1755084;80;21013;-88
2022/09/22 10:55:38;;;;;;;8.20;4.53;;;;;;;12.36;74.28;98595.00;1770963;80;21072;-90
2022/09/22 10:58:12;;;;;;;7.55;4.33;;;;;;;12.33;74.58;98593.39;1753887;80;21187;-88
2022/09/22 11:00:39;;;;;;;3.90;3.00;;;;;;;12.33;74.34;98589.31;1735105;81;21652;-84
2022/09/22 11:03:57;;;;;;;6.50;3.75;;;;;;;12.39;73.10;98590.38;1756804;80;21028;-84
2022/09/22 11:12:59;;;;;;;5.47;3.85;;;;;;;12.59;72.89;98579.16;1720752;81;21567;-84
2022/09/22 11:15:57;;;;;;;;;;;;;;;12.88;76.10;98576.54;1725578;81;21130;-84
2022/09/22 11:19:01;;;;;;;8.45;4.25;;;;;;;12.86;77.92;98588.25;1733592;81;21001;-89
2022/09/22 11:21:52;;;;;;;5.85;4.58;;;;;;;12.75;78.50;98580.70;1731877;81;21048;-90
2022/09/22 11:24:43;;;;;;;6.65;3.62;;;;;;;12.57;79.99;98593.03;1735542;81;20950;-89
2022/09/22 11:28:00;;;;;;;5.42;4.12;;;;;;;12.65;80.35;98585.66;1703342;81;21552;-89
2022/09/22 11:30:26;;;;;;;7.15;3.67;;;;;;;12.77;81.85;98581.78;1729773;81;21061;-89
2022/09/22 11:33:19;;;;;;;9.33;3.50;;;;;;;12.77;80.80;98584.50;1726619;81;21753;-84
2022/09/22 11:36:06;;;;;;;5.10;3.58;;;;;;;12.68;80.59;98572.03;1730335;81;22304;-84
2022/09/22 11:39:06;;;;;;;8.70;3.33;;;;;;;12.74;81.03;98578.27;1728669;81;21087;-89
2022/09/22 11:41:40;;;;;;;4.08;2.87;;;;;;;12.91;80.65;98582.25;1734957;81;21027;-88
2022/09/22 11:44:42;;;;;;;5.47;3.55;;;;;;;12.83;77.40;98583.39;1730748;81;22144;-84
2022/09/22 11:47:22;;;;;;;5.40;2.67;;;;;;;12.95;76.63;98585.20;1766676;79;21052;-87
2022/09/22 11:50:13;;;;;;;3.98;2.33;;;;;;;12.70;79.59;98595.12;1736958;81;21056;-89
2022/09/22 11:53:20;;;;;;;3.22;2.77;;;;;;;11.97;82.76;98608.97;1764377;79;21450;-84
2022/09/22 11:56:05;;;;;;;5.60;2.67;;;;;;;11.69;85.51;98602.16;1731587;81;21631;-84
2022/09/22 11:58:31;;;;;;;4.60;2.77;;;;;;;11.55;87.56;98602.73;1766898;78;21049;-84